createdAt,value
2023-05-23T00:00:57.535Z,8.88
2023-05-23T00:03:28.907Z,8.95
2023-05-23T00:05:56.547Z,9.30
2023-05-23T00:08:23.154Z,10.20
2023-05-23T00:10:49.635Z,9.20
2023-05-23T00:13:16.205Z,9.13
2023-05-23T00:15:42.708Z,9.98
2023-05-23T00:18:11.936Z,9.60
2023-05-23T00:20:41.635Z,9.07
2023-05-23T00:23:09.882Z,9.77
2023-05-23T00:25:37.232Z,9.35
2023-05-23T00:28:04.926Z,10.10
2023-05-23T00:30:33.358Z,9.60
2023-05-23T00:33:00.534Z,10.02
2023-05-23T00:35:27.505Z,10.20
2023-05-23T00:37:54.208Z,10.02
2023-05-23T00:40:21.550Z,9.77
2023-05-23T00:42:48.429Z,9.55
2023-05-23T00:45:15.409Z,10.35
2023-05-23T00:47:42.519Z,9.65
2023-05-23T00:50:11.891Z,9.45
2023-05-23T00:52:39.290Z,9.13
2023-05-23T00:55:06.277Z,9.15
2023-05-23T00:57:34.817Z,9.75
2023-05-23T01:00:02.042Z,9.40
2023-05-23T01:02:30.148Z,9.40
2023-05-23T01:04:56.761Z,9.10
2023-05-23T01:07:23.334Z,10.45
2023-05-23T01:09:50.077Z,9.93
2023-05-23T01:12:36.940Z,10.93
2023-05-23T01:15:08.716Z,10.82
2023-05-23T01:17:47.405Z,10.27
2023-05-23T01:20:21.431Z,10.63
2023-05-23T01:23:03.670Z,11.32
2023-05-23T01:25:50.140Z,10.52
2023-05-23T01:28:21.986Z,11.13
2023-05-23T01:30:50.370Z,11.10
2023-05-23T01:33:17.959Z,11.43
2023-05-23T01:35:44.905Z,11.30
2023-05-23T01:38:11.440Z,11.95
2023-05-23T01:40:39.256Z,12.00
2023-05-23T01:43:05.821Z,12.13
2023-05-23T01:45:32.585Z,11.98
2023-05-23T01:47:59.491Z,11.57
2023-05-23T01:50:27.239Z,11.98
2023-05-23T01:52:54.078Z,12.02
2023-05-23T01:55:24.720Z,11.40
2023-05-23T01:57:51.843Z,11.63
2023-05-23T02:00:19.849Z,11.75
2023-05-23T02:02:47.862Z,10.50
2023-05-23T02:05:16.508Z,11.57
2023-05-23T02:07:43.358Z,11.23
2023-05-23T02:10:10.179Z,11.40
2023-05-23T02:12:38.065Z,11.10
2023-05-23T02:15:05.538Z,11.13
2023-05-23T02:17:32.271Z,10.73
2023-05-23T02:19:59.547Z,10.77
2023-05-23T02:22:26.201Z,10.40
2023-05-23T02:24:52.911Z,10.77
2023-05-23T02:27:19.594Z,10.98
2023-05-23T02:29:46.132Z,10.63
2023-05-23T02:32:12.708Z,10.48
2023-05-23T02:34:39.274Z,11.10
2023-05-23T02:37:06.369Z,10.98
2023-05-23T02:39:34.640Z,11.50
2023-05-23T02:42:02.119Z,11.45
2023-05-23T02:44:28.775Z,11.52
2023-05-23T02:46:55.372Z,11.70
2023-05-23T02:49:21.944Z,12.63
2023-05-23T02:51:50.992Z,13.25
2023-05-23T02:54:17.728Z,13.88
2023-05-23T02:56:45.760Z,15.45
2023-05-23T02:59:12.753Z,16.27
2023-05-23T03:01:39.426Z,18.20
2023-05-23T03:04:06.165Z,18.40
2023-05-23T03:06:34.193Z,17.63
2023-05-23T03:09:01.471Z,18.08
2023-05-23T03:11:29.971Z,18.75
2023-05-23T03:13:56.699Z,18.77
2023-05-23T03:16:26.351Z,19.23
2023-05-23T03:18:53.115Z,18.50
2023-05-23T03:21:19.821Z,18.98
2023-05-23T03:23:46.422Z,19.98
2023-05-23T03:26:13.054Z,19.52
2023-05-23T03:28:39.673Z,18.83
2023-05-23T03:31:06.373Z,18.45
2023-05-23T03:33:33.587Z,18.42
2023-05-23T03:36:00.293Z,17.83
2023-05-23T03:38:27.778Z,18.58
2023-05-23T03:40:54.411Z,17.67
2023-05-23T03:43:21.038Z,17.90
2023-05-23T03:45:48.362Z,19.00
2023-05-23T03:48:17.509Z,16.95
2023-05-23T03:50:44.634Z,15.43
2023-05-23T03:53:12.118Z,17.05
2023-05-23T03:55:39.518Z,16.85
2023-05-23T03:58:06.446Z,17.42
2023-05-23T04:00:33.170Z,16.75
2023-05-23T04:03:01.778Z,16.60
2023-05-23T04:05:29.373Z,15.60
2023-05-23T04:07:55.999Z,14.98
2023-05-23T04:10:23.169Z,15.15
2023-05-23T04:12:50.066Z,15.40
2023-05-23T04:15:18.168Z,15.07
2023-05-23T04:17:52.095Z,15.93
2023-05-23T04:20:18.803Z,14.05
2023-05-23T04:22:45.462Z,14.30
2023-05-23T04:25:12.518Z,14.15
2023-05-23T04:27:45.568Z,14.48
2023-05-23T04:30:12.444Z,15.18
2023-05-23T04:32:42.203Z,13.85
2023-05-23T04:35:12.905Z,15.02
2023-05-23T04:37:42.461Z,15.07
2023-05-23T04:40:09.377Z,15.45
2023-05-23T04:42:56.822Z,15.25
2023-05-23T04:45:31.030Z,15.43
2023-05-23T04:48:01.115Z,15.93
2023-05-23T04:50:42.741Z,16.27
2023-05-23T04:53:09.651Z,16.92
2023-05-23T04:55:36.669Z,17.80
2023-05-23T04:58:03.577Z,17.17
2023-05-23T05:00:30.368Z,17.20
2023-05-23T05:02:57.218Z,17.60
2023-05-23T05:05:27.936Z,16.90
2023-05-23T05:07:54.530Z,16.60
2023-05-23T05:10:21.097Z,16.70
2023-05-23T05:12:49.528Z,15.18
2023-05-23T05:15:17.490Z,15.13
2023-05-23T05:17:49.596Z,13.98
2023-05-23T05:20:18.371Z,14.95
2023-05-23T05:22:45.910Z,14.57
2023-05-23T05:25:13.053Z,15.77
2023-05-23T05:27:39.891Z,16.55
2023-05-23T05:30:09.622Z,16.65
2023-05-23T05:32:58.079Z,17.02
2023-05-23T05:35:24.750Z,16.77
2023-05-23T05:37:51.469Z,17.67
2023-05-23T05:40:18.646Z,18.25
2023-05-23T05:42:45.406Z,17.95
2023-05-23T05:45:12.095Z,18.52
2023-05-23T05:47:40.225Z,19.45
2023-05-23T05:50:08.453Z,18.17
2023-05-23T05:52:41.356Z,16.88
2023-05-23T05:55:11.219Z,16.27
2023-05-23T05:57:39.790Z,15.60
2023-05-23T06:00:15.134Z,14.43
2023-05-23T06:02:57.225Z,14.38
2023-05-23T06:05:33.568Z,14.13
2023-05-23T06:08:00.595Z,13.88
2023-05-23T06:10:27.208Z,14.07
2023-05-23T06:12:53.931Z,13.35
2023-05-23T06:15:21.078Z,12.63
2023-05-23T06:17:47.645Z,12.07
2023-05-23T06:20:14.268Z,12.35
2023-05-23T06:22:44.248Z,11.90
2023-05-23T06:25:10.997Z,11.02
2023-05-23T06:27:38.154Z,10.80
2023-05-23T06:30:05.621Z,10.93
2023-05-23T06:32:32.200Z,9.95
2023-05-23T06:34:58.718Z,9.85
2023-05-23T06:37:25.231Z,9.32
2023-05-23T06:39:51.739Z,9.18
2023-05-23T06:42:18.477Z,9.93
2023-05-23T06:45:09.587Z,8.90
2023-05-23T06:47:37.620Z,9.38
2023-05-23T06:50:04.560Z,9.15
2023-05-23T06:52:32.535Z,9.05
2023-05-23T06:54:59.348Z,9.07
2023-05-23T06:57:25.935Z,8.70
2023-05-23T06:59:52.509Z,9.00
2023-05-23T07:02:20.073Z,8.68
2023-05-23T07:04:46.686Z,8.52
2023-05-23T07:07:19.410Z,9.57
2023-05-23T07:09:46.516Z,8.43
2023-05-23T07:12:17.346Z,9.35
2023-05-23T07:14:46.481Z,8.95
2023-05-23T07:17:13.964Z,8.95
2023-05-23T07:19:41.139Z,9.13
2023-05-23T07:22:07.689Z,8.18
2023-05-23T07:24:37.234Z,7.90
2023-05-23T07:27:04.981Z,8.00
2023-05-23T07:29:32.218Z,8.05
2023-05-23T07:31:59.398Z,6.70
2023-05-23T07:34:28.325Z,6.10
2023-05-23T07:36:57.138Z,6.30
2023-05-23T07:39:27.878Z,6.55
2023-05-23T07:41:55.926Z,6.70
2023-05-23T07:44:24.879Z,6.80
2023-05-23T07:46:52.203Z,5.95
2023-05-23T07:49:19.212Z,6.20
2023-05-23T07:51:45.832Z,5.50
2023-05-23T07:54:14.508Z,5.60
2023-05-23T07:56:43.490Z,5.85
2023-05-23T07:59:10.373Z,5.75
2023-05-23T08:01:37.419Z,5.93
2023-05-23T08:04:06.976Z,5.65
2023-05-23T08:07:04.961Z,5.30
2023-05-23T08:09:46.038Z,5.45
2023-05-23T08:12:15.814Z,6.53
2023-05-23T08:14:51.463Z,5.70
2023-05-23T08:17:28.904Z,5.70
2023-05-23T08:19:55.605Z,5.50
2023-05-23T08:22:22.780Z,5.55
2023-05-23T08:24:49.779Z,5.72
2023-05-23T08:27:16.302Z,5.55
2023-05-23T08:29:44.719Z,5.75
2023-05-23T08:32:11.352Z,5.78
2023-05-23T08:34:38.490Z,5.50
2023-05-23T08:37:05.031Z,6.30
2023-05-23T08:39:31.606Z,5.35
2023-05-23T08:42:16.413Z,5.75
2023-05-23T08:44:43.783Z,5.32
2023-05-23T08:47:11.180Z,5.60
2023-05-23T08:49:51.910Z,5.30
2023-05-23T08:52:22.327Z,4.97
2023-05-23T08:54:51.622Z,4.63
2023-05-23T08:57:18.170Z,4.80
2023-05-23T08:59:51.041Z,5.28
2023-05-23T09:02:18.332Z,4.47
2023-05-23T09:04:46.923Z,4.13
2023-05-23T09:07:19.012Z,4.03
2023-05-23T09:09:46.224Z,3.92
2023-05-23T09:12:15.360Z,3.85
2023-05-23T09:14:46.018Z,3.72
2023-05-23T09:17:17.014Z,3.50
2023-05-23T09:19:43.801Z,2.65
2023-05-23T09:22:26.121Z,2.50
2023-05-23T09:25:12.913Z,3.28
2023-05-23T09:27:42.256Z,2.28
2023-05-23T09:30:10.899Z,1.80
2023-05-23T09:32:37.452Z,1.55
2023-05-23T09:35:12.345Z,1.20
2023-05-23T09:37:40.923Z,1.42
2023-05-23T09:40:12.267Z,1.10
2023-05-23T09:42:48.332Z,1.40
2023-05-23T09:45:16.316Z,1.33
2023-05-23T09:47:51.592Z,1.13
2023-05-23T09:50:18.776Z,1.45
2023-05-23T09:52:46.547Z,1.15
2023-05-23T09:55:13.285Z,1.20
2023-05-23T09:57:42.009Z,1.58
2023-05-23T10:00:15.272Z,1.40
2023-05-23T10:02:55.464Z,1.20
2023-05-23T10:05:32.032Z,1.45
2023-05-23T10:08:01.262Z,1.40
2023-05-23T10:10:32.714Z,1.33
2023-05-23T10:13:03.286Z,1.25
2023-05-23T10:15:36.330Z,1.40
2023-05-23T10:18:12.632Z,1.17
2023-05-23T10:20:40.294Z,1.45
2023-05-23T10:23:07.239Z,1.48
2023-05-23T10:25:36.893Z,1.20
2023-05-23T10:28:04.592Z,1.42
2023-05-23T10:30:31.875Z,1.20
2023-05-23T10:32:59.435Z,1.50
2023-05-23T10:35:42.874Z,1.55
2023-05-23T10:38:30.259Z,1.33
2023-05-23T10:41:11.174Z,1.42
2023-05-23T10:43:55.829Z,1.52
2023-05-23T10:46:22.595Z,1.30
2023-05-23T10:48:54.421Z,1.63
2023-05-23T10:51:22.151Z,1.77
2023-05-23T10:53:53.756Z,1.67
2023-05-23T10:56:24.357Z,1.80
2023-05-23T10:58:55.433Z,1.63
2023-05-23T11:01:22.506Z,1.30
2023-05-23T11:03:54.045Z,1.50
2023-05-23T11:06:29.395Z,1.58
2023-05-23T11:11:49.144Z,1.50
2023-05-23T11:14:15.892Z,1.63
2023-05-23T11:16:43.724Z,1.48
2023-05-23T11:19:19.861Z,1.65
2023-05-23T11:21:49.377Z,1.30
2023-05-23T11:24:17.551Z,1.42
2023-05-23T11:27:03.560Z,1.27
2023-05-23T11:29:30.828Z,1.60
2023-05-23T11:31:57.595Z,1.50
2023-05-23T11:34:27.215Z,1.52
2023-05-23T11:36:57.167Z,1.15
2023-05-23T11:39:24.047Z,1.13
2023-05-23T11:42:01.004Z,1.00
2023-05-23T11:44:27.753Z,1.10
2023-05-23T11:47:05.146Z,1.17
2023-05-23T11:49:35.597Z,0.95
2023-05-23T11:52:02.779Z,1.10
2023-05-23T11:54:29.327Z,1.10
2023-05-23T11:56:56.139Z,0.98
2023-05-23T11:59:25.997Z,0.85
2023-05-23T12:01:56.384Z,0.68
2023-05-23T12:04:23.080Z,0.70
2023-05-23T12:06:50.164Z,0.52
2023-05-23T12:09:17.076Z,0.73
2023-05-23T12:11:44.240Z,0.60
2023-05-23T12:14:14.915Z,0.70
2023-05-23T12:16:49.483Z,0.50
2023-05-23T12:19:19.020Z,0.90
2023-05-23T12:21:49.044Z,1.55
2023-05-23T12:24:19.692Z,1.20
2023-05-23T12:26:53.720Z,1.70
2023-05-23T12:29:22.207Z,1.60
2023-05-23T12:31:50.498Z,1.70
2023-05-23T12:34:17.388Z,1.77
2023-05-23T12:36:49.314Z,1.63
2023-05-23T12:39:16.556Z,1.50
2023-05-23T12:41:44.232Z,1.38
2023-05-23T12:44:11.422Z,1.40
2023-05-23T12:46:37.955Z,1.13
2023-05-23T12:49:04.909Z,0.98
2023-05-23T12:51:31.956Z,0.85
2023-05-23T12:53:58.934Z,1.05
2023-05-23T12:56:26.589Z,1.08
2023-05-23T12:58:53.986Z,0.70
2023-05-23T13:01:20.927Z,0.70
2023-05-23T13:03:47.553Z,0.60
2023-05-23T13:06:14.405Z,0.80
2023-05-23T13:08:41.647Z,0.85
2023-05-23T13:11:08.913Z,0.75
2023-05-23T13:13:35.464Z,1.05
2023-05-23T13:16:02.069Z,1.10
2023-05-23T13:18:28.563Z,1.05
2023-05-23T13:20:55.164Z,1.17
2023-05-23T13:23:21.656Z,1.00
2023-05-23T13:25:50.451Z,1.00
2023-05-23T13:28:17.384Z,1.02
2023-05-23T13:30:46.563Z,1.27
2023-05-23T13:33:13.670Z,1.50
2023-05-23T13:35:40.678Z,1.70
2023-05-23T13:38:07.661Z,1.75
2023-05-23T13:40:34.217Z,1.85
2023-05-23T13:43:00.777Z,2.00
2023-05-23T13:45:27.394Z,2.80
2023-05-23T13:47:53.928Z,3.42
2023-05-23T13:50:20.636Z,3.45
2023-05-23T13:52:49.204Z,4.20
2023-05-23T13:55:16.580Z,4.35
2023-05-23T13:57:43.097Z,4.70
2023-05-23T14:00:10.087Z,5.18
2023-05-23T14:02:36.642Z,5.07
2023-05-23T14:05:03.705Z,4.82
2023-05-23T14:07:30.303Z,4.57
2023-05-23T14:09:57.550Z,4.15
2023-05-23T14:12:24.039Z,4.20
2023-05-23T14:14:50.955Z,3.97
2023-05-23T14:17:17.499Z,4.57
2023-05-23T14:19:44.441Z,4.20
2023-05-23T14:22:11.488Z,5.10
2023-05-23T14:24:38.060Z,4.65
2023-05-23T14:27:04.963Z,4.57
2023-05-23T14:29:31.732Z,4.50
2023-05-23T14:32:00.717Z,4.55
2023-05-23T14:34:27.469Z,4.22
2023-05-23T14:36:54.100Z,4.75
2023-05-23T14:39:20.696Z,4.63
2023-05-23T14:41:47.188Z,5.55
2023-05-23T14:44:13.724Z,4.85
2023-05-23T14:46:41.991Z,5.80
2023-05-23T14:49:08.508Z,5.28
2023-05-23T14:51:46.040Z,5.68
2023-05-23T14:54:15.942Z,5.35
2023-05-23T14:56:43.122Z,5.22
2023-05-23T14:59:09.612Z,5.68
2023-05-23T15:01:38.066Z,5.63
2023-05-23T15:04:08.924Z,6.93
2023-05-23T15:06:36.036Z,6.28
2023-05-23T15:09:03.138Z,6.55
2023-05-23T15:11:30.055Z,6.32
2023-05-23T15:13:56.609Z,5.80
2023-05-23T15:16:23.187Z,5.10
2023-05-23T15:18:49.811Z,5.50
2023-05-23T15:21:16.488Z,5.55
2023-05-23T15:23:43.010Z,5.60
2023-05-23T15:26:09.529Z,5.07
2023-05-23T15:28:36.199Z,6.13
2023-05-23T15:31:02.734Z,6.30
2023-05-23T15:33:29.227Z,6.60
2023-05-23T15:35:57.730Z,6.93
2023-05-23T15:38:24.317Z,5.88
2023-05-23T15:40:52.647Z,6.15
2023-05-23T15:43:19.169Z,6.22
2023-05-23T15:45:45.871Z,6.57
2023-05-23T15:48:12.845Z,6.07
2023-05-23T15:50:39.554Z,6.18
2023-05-23T15:53:06.296Z,6.20
2023-05-23T15:55:32.919Z,5.35
2023-05-23T15:57:59.395Z,5.93
2023-05-23T16:00:25.914Z,5.72
2023-05-23T16:02:52.432Z,5.20
2023-05-23T16:05:18.952Z,6.18
2023-05-23T16:07:45.464Z,5.18
2023-05-23T16:10:12.363Z,5.18
2023-05-23T16:12:38.896Z,5.28
2023-05-23T16:15:05.621Z,5.57
2023-05-23T16:17:32.099Z,5.78
2023-05-23T16:19:58.645Z,5.72
2023-05-23T16:22:25.589Z,5.80
2023-05-23T16:24:53.421Z,5.85
2023-05-23T16:27:21.274Z,6.53
2023-05-23T16:29:47.774Z,6.43
2023-05-23T16:32:15.474Z,6.25
2023-05-23T16:34:42.096Z,5.70
2023-05-23T16:37:08.642Z,5.18
2023-05-23T16:39:35.185Z,5.10
2023-05-23T16:42:02.001Z,5.35
2023-05-23T16:44:28.654Z,5.05
2023-05-23T16:46:55.285Z,5.50
2023-05-23T16:49:22.101Z,4.95
2023-05-23T16:51:48.971Z,5.10
2023-05-23T16:54:15.789Z,5.80
2023-05-23T16:56:42.954Z,5.03
2023-05-23T16:59:09.481Z,4.97
2023-05-23T17:01:36.070Z,5.30
2023-05-23T17:04:03.960Z,4.97
2023-05-23T17:06:31.382Z,4.82
2023-05-23T17:08:57.958Z,5.18
2023-05-23T17:11:25.345Z,4.72
2023-05-23T17:13:52.244Z,5.07
2023-05-23T17:16:20.697Z,4.25
2023-05-23T17:18:47.523Z,4.88
2023-05-23T17:21:14.096Z,4.95
2023-05-23T17:23:40.692Z,4.30
2023-05-23T17:26:07.335Z,4.22
2023-05-23T17:28:33.967Z,4.75
2023-05-23T17:31:00.941Z,4.60
2023-05-23T17:33:27.533Z,4.47
2023-05-23T17:35:54.044Z,4.63
2023-05-23T17:38:20.587Z,4.85
2023-05-23T17:40:47.154Z,4.70
2023-05-23T17:43:13.697Z,5.10
2023-05-23T17:45:40.278Z,5.18
2023-05-23T17:48:07.335Z,4.85
2023-05-23T17:50:33.869Z,4.75
2023-05-23T17:53:02.068Z,4.97
2023-05-23T17:55:29.970Z,5.28
2023-05-23T17:57:56.478Z,5.75
2023-05-23T18:00:22.982Z,5.07
2023-05-23T18:02:51.063Z,4.82
2023-05-23T18:05:20.336Z,5.28
2023-05-23T18:07:47.713Z,5.60
2023-05-23T18:10:14.373Z,6.13
2023-05-23T18:12:41.133Z,5.80
2023-05-23T18:15:09.732Z,5.63
2023-05-23T18:17:36.400Z,5.95
2023-05-23T18:20:03.227Z,5.43
2023-05-23T18:22:33.248Z,5.82
2023-05-23T18:25:00.088Z,6.38
2023-05-23T18:27:26.730Z,5.88
2023-05-23T18:29:53.319Z,5.68
2023-05-23T18:32:20.887Z,5.70
2023-05-23T18:34:47.527Z,5.32
2023-05-23T18:37:14.279Z,5.28
2023-05-23T18:39:41.171Z,5.40
2023-05-23T18:42:07.815Z,4.95
2023-05-23T18:44:34.888Z,5.35
2023-05-23T18:47:01.518Z,5.10
2023-05-23T18:49:28.059Z,5.20
2023-05-23T18:51:54.602Z,4.88
2023-05-23T18:54:21.205Z,5.15
2023-05-23T18:56:47.740Z,4.53
2023-05-23T18:59:15.873Z,4.65
2023-05-23T19:01:42.690Z,5.00
2023-05-23T19:04:09.888Z,4.25
2023-05-23T19:06:36.805Z,4.75
2023-05-23T19:09:06.672Z,4.60
2023-05-23T19:11:33.282Z,4.38
2023-05-23T19:13:59.773Z,4.40
2023-05-23T19:16:26.325Z,4.28
2023-05-23T19:18:53.135Z,4.72
2023-05-23T19:21:19.698Z,4.22
2023-05-23T19:23:46.222Z,4.63
2023-05-23T19:26:13.588Z,4.40
2023-05-23T19:28:40.443Z,4.60
2023-05-23T19:31:09.255Z,4.63
2023-05-23T19:33:36.888Z,4.45
2023-05-23T19:36:03.843Z,5.07
2023-05-23T19:38:30.346Z,4.65
2023-05-23T19:40:56.830Z,3.92
2023-05-23T19:43:23.432Z,4.97
2023-05-23T19:45:49.944Z,4.05
2023-05-23T19:48:16.685Z,4.75
2023-05-23T19:50:43.715Z,4.50
2023-05-23T19:53:11.403Z,4.28
2023-05-23T19:55:37.908Z,4.35
2023-05-23T19:58:05.537Z,4.72
2023-05-23T20:00:32.082Z,4.78
2023-05-23T20:02:58.579Z,4.53
2023-05-23T20:05:25.398Z,4.75
2023-05-23T20:07:52.551Z,4.63
2023-05-23T20:10:19.088Z,3.83
2023-05-23T20:12:45.646Z,3.70
2023-05-23T20:15:12.245Z,4.65
2023-05-23T20:17:38.802Z,4.00
2023-05-23T20:20:06.359Z,4.13
2023-05-23T20:22:32.875Z,3.83
2023-05-23T20:24:59.414Z,3.67
2023-05-23T20:27:26.757Z,4.43
2023-05-23T20:29:53.349Z,4.03
2023-05-23T20:32:19.828Z,4.25
2023-05-23T20:34:46.696Z,4.25
2023-05-23T20:37:13.651Z,4.47
2023-05-23T20:39:41.417Z,4.45
2023-05-23T20:42:11.005Z,4.13
2023-05-23T20:44:38.122Z,4.10
2023-05-23T20:47:06.763Z,4.13
2023-05-23T20:49:34.788Z,3.90
2023-05-23T20:52:01.567Z,3.95
2023-05-23T20:54:28.208Z,4.10
2023-05-23T20:56:54.702Z,3.70
2023-05-23T20:59:21.422Z,3.67
2023-05-23T21:01:48.019Z,3.60
2023-05-23T21:04:15.696Z,4.43
2023-05-23T21:06:44.017Z,3.65
2023-05-23T21:09:11.180Z,3.35
2023-05-23T21:11:37.648Z,4.43
2023-05-23T21:14:04.145Z,3.58
2023-05-23T21:16:32.672Z,4.10
2023-05-23T21:19:00.227Z,4.07
2023-05-23T21:21:26.782Z,3.80
2023-05-23T21:23:53.296Z,3.92
2023-05-23T21:26:19.847Z,3.47
2023-05-23T21:28:46.428Z,4.03
2023-05-23T21:31:13.637Z,3.50
2023-05-23T21:33:40.237Z,3.25
2023-05-23T21:36:06.812Z,3.67
2023-05-23T21:38:37.276Z,3.47
2023-05-23T21:41:03.838Z,3.80
2023-05-23T21:43:30.562Z,3.90
2023-05-23T21:45:57.201Z,3.65
2023-05-23T21:48:23.777Z,3.53
2023-05-23T21:50:50.452Z,3.78
2023-05-23T21:53:17.023Z,4.00
2023-05-23T21:55:43.684Z,3.65
2023-05-23T21:58:10.225Z,3.75
2023-05-23T22:00:36.799Z,3.30
2023-05-23T22:03:03.664Z,4.53
2023-05-23T22:05:30.462Z,3.78
2023-05-23T22:07:57.363Z,3.47
2023-05-23T22:10:24.441Z,3.72
2023-05-23T22:12:51.055Z,3.35
2023-05-23T22:15:17.621Z,3.95
2023-05-23T22:17:46.778Z,3.78
2023-05-23T22:20:15.818Z,3.85
2023-05-23T22:22:42.340Z,3.75
2023-05-23T22:25:09.010Z,3.80
2023-05-23T22:27:35.570Z,4.07
2023-05-23T22:30:02.360Z,3.50
2023-05-23T22:32:29.019Z,3.70
2023-05-23T22:34:55.570Z,3.90
2023-05-23T22:37:22.121Z,4.05
2023-05-23T22:39:48.701Z,3.63
2023-05-23T22:42:15.353Z,4.05
2023-05-23T22:44:41.893Z,3.88
2023-05-23T22:47:10.189Z,4.00
2023-05-23T22:49:37.493Z,4.60
2023-05-23T22:52:04.210Z,4.25
2023-05-23T22:54:30.748Z,4.10
2023-05-23T22:56:57.306Z,4.03
2023-05-23T22:59:23.796Z,4.00
2023-05-23T23:01:51.164Z,4.53
2023-05-23T23:04:18.135Z,4.05
2023-05-23T23:06:44.648Z,4.75
2023-05-23T23:09:11.136Z,3.67
2023-05-23T23:11:37.684Z,3.42
2023-05-23T23:14:04.173Z,4.07
2023-05-23T23:16:30.782Z,3.50
2023-05-23T23:18:58.035Z,4.25
2023-05-23T23:21:24.606Z,4.57
2023-05-23T23:23:51.750Z,3.55
2023-05-23T23:26:18.317Z,4.57
2023-05-23T23:28:44.853Z,4.07
2023-05-23T23:31:11.385Z,3.90
2023-05-23T23:33:37.923Z,3.88
2023-05-23T23:36:04.667Z,4.15
2023-05-23T23:38:31.177Z,3.63
2023-05-23T23:40:57.666Z,3.83
2023-05-23T23:43:24.180Z,3.53
2023-05-23T23:45:50.728Z,4.03
2023-05-23T23:48:17.287Z,3.58
2023-05-23T23:50:44.031Z,3.90
2023-05-23T23:53:11.038Z,4.05
2023-05-23T23:55:37.520Z,4.50
2023-05-23T23:58:04.049Z,3.50
